Time;durP1;ratioP1;P1;durP2;ratioP2;P2;SDS_P1;SDS_P2;PMS_P1;PMS_P2;Temp;Humidity;BMP_temperature;BMP_pressure;BME280_temperature;BME280_humidity;BME280_pressure;Samples;Min_cycle;Max_cycle;Signal;HPM_P1;HPM_P2
2022/07/02 00:00:46;;;;;;;;;;;14.70;99.90;;;;;;5055792;28;20004;-69
2022/07/02 00:03:14;;;;;;;;;;;14.50;99.90;;;;;;5055427;28;20431;-68
2022/07/02 00:05:44;;;;;;;;;;;14.20;99.90;;;;;;5055372;28;19909;-69
2022/07/02 00:08:10;;;;;;;;;;;14.00;99.90;;;;;;5056150;28;19963;-68
2022/07/02 00:10:36;;;;;;;;;;;13.80;99.90;;;;;;5055569;28;19913;-69
2022/07/02 00:13:01;;;;;;;;;;;13.60;99.90;;;;;;5055808;28;20285;-69
2022/07/02 00:15:27;;;;;;;;;;;13.50;99.90;;;;;;5055417;28;19920;-70
2022/07/02 00:17:53;;;;;;;;;;;13.40;99.90;;;;;;5055140;28;20008;-69
2022/07/02 00:20:19;;;;;;;;;;;13.30;99.90;;;;;;5055090;28;20019;-68
2022/07/02 00:22:45;;;;;;;;;;;13.40;99.90;;;;;;5055082;28;19909;-70
2022/07/02 00:25:10;;;;;;;;;;;13.50;99.90;;;;;;5054975;28;19916;-70
2022/07/02 00:27:38;;;;;;;;;;;13.20;99.90;;;;;;5054639;28;20000;-69
2022/07/02 00:30:04;;;;;;;;;;;13.20;99.90;;;;;;5055201;28;19909;-68
2022/07/02 00:32:31;;;;;;;;;;;13.20;99.90;;;;;;5054825;28;20434;-68
2022/07/02 00:34:58;;;;;;;;;;;13.20;99.90;;;;;;5054764;28;19917;-68
2022/07/02 00:37:25;;;;;;;;;;;13.20;99.90;;;;;;5054782;28;19909;-70
2022/07/02 00:39:51;;;;;;;;;;;13.30;99.90;;;;;;5054992;28;19908;-69
2022/07/02 00:42:17;;;;;;;;;;;13.30;99.90;;;;;;5054966;28;19961;-71
2022/07/02 00:44:45;;;;;;;;;;;13.30;99.90;;;;;;5054656;28;19909;-69
2022/07/02 00:47:11;;;;;;;;;;;13.30;99.90;;;;;;5054900;28;19909;-70
2022/07/02 00:49:37;;;;;;;;;;;13.50;99.90;;;;;;5054556;28;19909;-69
2022/07/02 00:52:03;;;;;;;;;;;13.30;99.90;;;;;;5054748;28;19908;-68
2022/07/02 00:54:29;;;;;;;;;;;13.50;99.90;;;;;;5054259;28;19987;-69
2022/07/02 00:56:55;;;;;;;;;;;13.50;99.90;;;;;;5054716;28;20011;-71
2022/07/02 00:59:21;;;;;;;;;;;13.50;99.90;;;;;;5054676;28;19909;-69
2022/07/02 01:01:46;;;;;;;;;;;13.50;99.90;;;;;;5054353;28;19909;-70
2022/07/02 01:04:13;;;;;;;;;;;13.50;99.90;;;;;;5054310;28;19909;-70
2022/07/02 01:06:40;;;;;;;;;;;13.60;99.90;;;;;;5055005;28;19940;-71
2022/07/02 01:11:50;;;;;;;;;;;13.80;99.90;;;;;;5054541;28;19935;-71
2022/07/02 01:14:18;;;;;;;;;;;13.70;99.90;;;;;;5054064;28;19917;-69
2022/07/02 01:16:43;;;;;;;;;;;13.50;99.90;;;;;;5036241;28;19909;-69
2022/07/02 01:19:10;;;;;;;;;;;13.50;99.90;;;;;;5054062;28;19916;-69
2022/07/02 01:21:37;;;;;;;;;;;13.40;99.90;;;;;;5054291;28;19912;-70
2022/07/02 01:24:02;;;;;;;;;;;13.50;99.90;;;;;;5054127;28;19970;-70
2022/07/02 01:26:28;;;;;;;;;;;13.50;99.90;;;;;;5054143;28;20380;-69
2022/07/02 01:28:53;;;;;;;;;;;13.40;99.90;;;;;;5054463;28;20368;-69
2022/07/02 01:31:19;;;;;;;;;;;13.20;99.90;;;;;;5053848;28;20365;-68
2022/07/02 01:33:44;;;;;;;;;;;13.10;99.90;;;;;;5053809;28;20003;-69
2022/07/02 01:36:10;;;;;;;;;;;13.20;99.90;;;;;;5054076;28;20306;-70
2022/07/02 01:38:35;;;;;;;;;;;13.10;99.90;;;;;;5053745;28;20396;-70
2022/07/02 01:43:45;;;;;;;;;;;13.10;99.90;;;;;;5053814;28;19932;-69
2022/07/02 01:46:10;;;;;;;;;;;13.00;99.90;;;;;;5053662;28;20385;-69
2022/07/02 01:48:36;;;;;;;;;;;12.90;99.90;;;;;;5053695;28;19958;-68
2022/07/02 01:51:01;;;;;;;;;;;12.80;99.90;;;;;;5053879;28;19916;-70
2022/07/02 01:53:27;;;;;;;;;;;12.80;99.90;;;;;;5053609;28;19909;-68
2022/07/02 01:55:52;;;;;;;;;;;12.90;99.90;;;;;;5053755;28;20046;-70
2022/07/02 01:58:18;;;;;;;;;;;12.80;99.90;;;;;;5053837;28;19915;-70
2022/07/02 02:00:43;;;;;;;;;;;12.90;99.90;;;;;;5054094;28;20320;-69
2022/07/02 02:03:09;;;;;;;;;;;12.90;99.90;;;;;;5053427;28;20312;-70
2022/07/02 02:05:34;;;;;;;;;;;13.00;99.90;;;;;;5056635;28;19945;-71
2022/07/02 02:08:00;;;;;;;;;;;13.00;99.90;;;;;;5057582;28;20287;-69
2022/07/02 02:10:25;;;;;;;;;;;12.90;99.90;;;;;;5057580;28;19940;-69
2022/07/02 02:12:51;;;;;;;;;;;12.70;99.90;;;;;;5057810;28;19967;-68
2022/07/02 02:15:16;;;;;;;;;;;12.70;99.90;;;;;;5057389;28;19912;-69
2022/07/02 02:17:42;;;;;;;;;;;12.80;99.90;;;;;;5057419;28;19916;-68
2022/07/02 02:20:08;;;;;;;;;;;12.70;99.90;;;;;;5057650;28;19994;-68
2022/07/02 02:22:33;;;;;;;;;;;12.80;99.90;;;;;;5057354;28;19915;-70
2022/07/02 02:24:59;;;;;;;;;;;12.70;99.90;;;;;;5057519;28;19909;-68
2022/07/02 02:27:24;;;;;;;;;;;12.70;99.90;;;;;;5057083;28;19917;-70
2022/07/02 02:29:50;;;;;;;;;;;12.80;99.90;;;;;;5057224;28;19909;-69
2022/07/02 02:32:16;;;;;;;;;;;12.70;99.90;;;;;;5057454;28;19913;-70
2022/07/02 02:34:41;;;;;;;;;;;12.80;99.90;;;;;;5057072;28;19916;-69
2022/07/02 02:37:07;;;;;;;;;;;12.80;99.90;;;;;;5057083;28;19996;-69
2022/07/02 02:39:33;;;;;;;;;;;12.60;99.90;;;;;;5057329;28;19908;-69
2022/07/02 02:41:59;;;;;;;;;;;12.50;99.90;;;;;;5056983;28;19940;-69
2022/07/02 02:44:25;;;;;;;;;;;12.40;99.90;;;;;;5057202;28;19953;-69
2022/07/02 02:46:50;;;;;;;;;;;12.30;99.90;;;;;;5056883;28;19954;-69
2022/07/02 02:49:16;;;;;;;;;;;12.30;99.90;;;;;;5057140;28;19920;-69
2022/07/02 02:51:41;;;;;;;;;;;12.20;99.90;;;;;;5056807;28;19909;-69
2022/07/02 02:54:07;;;;;;;;;;;12.00;99.90;;;;;;5057000;28;19916;-68
2022/07/02 02:56:32;;;;;;;;;;;12.10;99.90;;;;;;5056756;28;19913;-70
2022/07/02 02:58:58;;;;;;;;;;;12.20;99.90;;;;;;5056981;28;20323;-69
2022/07/02 03:01:23;;;;;;;;;;;12.40;99.90;;;;;;5056639;28;20292;-70
2022/07/02 03:03:49;;;;;;;;;;;12.30;99.90;;;;;;5056631;28;19909;-68
2022/07/02 03:06:14;;;;;;;;;;;12.10;99.90;;;;;;5056844;28;19913;-69
2022/07/02 03:08:40;;;;;;;;;;;11.90;99.90;;;;;;5038616;28;19915;-68
2022/07/02 03:11:05;;;;;;;;;;;12.00;99.90;;;;;;5056477;28;19913;-68
2022/07/02 03:13:31;;;;;;;;;;;12.10;99.90;;;;;;5056424;28;19909;-70
2022/07/02 03:15:57;;;;;;;;;;;12.00;99.90;;;;;;5055534;28;20470;-69
2022/07/02 03:18:22;;;;;;;;;;;12.00;99.90;;;;;;5038475;28;19913;-69
2022/07/02 03:20:48;;;;;;;;;;;11.90;99.90;;;;;;5056283;28;19916;-69
2022/07/02 03:23:13;;;;;;;;;;;11.90;99.90;;;;;;5056443;28;19916;-69
2022/07/02 03:25:39;;;;;;;;;;;11.90;99.90;;;;;;5056132;28;19913;-68
2022/07/02 03:28:04;;;;;;;;;;;12.20;99.90;;;;;;5055742;28;19916;-69
2022/07/02 03:30:30;;;;;;;;;;;12.10;99.90;;;;;;5056074;28;20369;-69
2022/07/02 03:32:55;;;;;;;;;;;11.90;99.90;;;;;;5038153;28;19920;-71
2022/07/02 03:35:21;;;;;;;;;;;11.80;99.90;;;;;;5056484;28;19924;-68
2022/07/02 03:37:47;;;;;;;;;;;;;;;;;;5055934;28;19916;-70
2022/07/02 03:40:13;;;;;;;;;;;;;;;;;;5055869;28;19913;-70
2022/07/02 03:42:38;;;;;;;;;;;;;;;;;;5056394;28;19963;-69
2022/07/02 03:45:04;;;;;;;;;;;;;;;;;;5055821;28;19952;-68
2022/07/02 03:47:30;;;;;;;;;;;;;;;;;;5056105;28;19909;-70
2022/07/02 03:49:56;;;;;;;;;;;;;;;;;;5055742;28;20023;-70
2022/07/02 03:52:22;;;;;;;;;;;;;;;;;;5055686;28;19909;-67
2022/07/02 03:54:48;;;;;;;;;;;;;;;;;;5055564;28;20357;-69
2022/07/02 03:57:14;;;;;;;;;;;;;;;;;;5055589;28;19909;-70
2022/07/02 03:59:39;;;;;;;;;;;12.00;99.90;;;;;;5037602;28;19909;-69
2022/07/02 04:02:05;;;;;;;;;;;11.70;99.90;;;;;;5055817;28;19909;-70
2022/07/02 04:04:30;;;;;;;;;;;11.80;99.90;;;;;;5055459;28;19972;-70
2022/07/02 04:06:56;;;;;;;;;;;11.70;99.90;;;;;;5055676;28;19913;-69
2022/07/02 04:09:21;;;;;;;;;;;11.60;99.90;;;;;;5037457;28;19909;-68
2022/07/02 04:11:47;;;;;;;;;;;11.50;99.90;;;;;;5055276;28;19931;-69
2022/07/02 04:14:12;;;;;;;;;;;11.50;99.90;;;;;;5055463;28;19913;-69
2022/07/02 04:16:38;;;;;;;;;;;11.50;99.90;;;;;;5055204;28;19916;-69
2022/07/02 04:19:03;;;;;;;;;;;11.70;99.90;;;;;;5055184;28;19909;-68
2022/07/02 04:21:29;;;;;;;;;;;11.80;99.90;;;;;;5055416;28;19909;-69
2022/07/02 04:23:54;;;;;;;;;;;11.90;99.90;;;;;;5054986;28;20399;-69
2022/07/02 04:26:20;;;;;;;;;;;11.60;99.90;;;;;;5046783;28;19986;-68
2022/07/02 04:28:45;;;;;;;;;;;11.40;99.90;;;;;;5054914;28;20003;-69
2022/07/02 04:31:11;;;;;;;;;;;11.40;99.90;;;;;;5055196;28;20409;-70
2022/07/02 04:33:36;;;;;;;;;;;11.40;99.90;;;;;;5054887;28;19948;-69
2022/07/02 04:36:02;;;;;;;;;;;11.70;99.90;;;;;;5055052;28;19956;-70
2022/07/02 04:38:28;;;;;;;;;;;11.90;99.90;;;;;;5055093;28;20018;-68
2022/07/02 04:40:53;;;;;;;;;;;11.90;99.90;;;;;;5055061;28;19939;-69
2022/07/02 04:43:19;;;;;;;;;;;11.90;99.90;;;;;;5054744;28;20279;-69
2022/07/02 04:45:44;;;;;;;;;;;11.90;99.90;;;;;;5054924;28;19909;-69
2022/07/02 04:48:10;;;;;;;;;;;11.80;99.90;;;;;;5054659;28;19908;-68
2022/07/02 04:50:35;;;;;;;;;;;11.80;99.90;;;;;;5054857;28;19916;-70
2022/07/02 04:53:01;;;;;;;;;;;11.80;99.90;;;;;;5054818;28;20044;-70
2022/07/02 04:55:26;;;;;;;;;;;11.50;99.90;;;;;;5054464;28;19912;-69
2022/07/02 04:57:52;;;;;;;;;;;11.50;99.90;;;;;;5054987;28;20379;-69
2022/07/02 05:00:17;;;;;;;;;;;11.50;99.90;;;;;;5054695;28;19909;-71
2022/07/02 05:02:43;;;;;;;;;;;11.40;99.90;;;;;;5054637;28;19909;-68
2022/07/02 05:05:09;;;;;;;;;;;11.50;99.90;;;;;;5054319;28;19908;-69
2022/07/02 05:07:34;;;;;;;;;;;11.60;99.90;;;;;;5054266;28;19909;-68
2022/07/02 05:10:00;;;;;;;;;;;11.60;99.90;;;;;;5054510;28;19944;-68
2022/07/02 05:12:25;;;;;;;;;;;11.50;99.90;;;;;;5054192;28;20357;-68
2022/07/02 05:14:51;;;;;;;;;;;11.50;99.90;;;;;;5054374;28;20360;-68
2022/07/02 05:17:20;;;;;;;;;;;11.60;99.90;;;;;;5054310;28;19955;-69
2022/07/02 05:19:45;;;;;;;;;;;11.60;99.90;;;;;;5054047;28;19916;-69
2022/07/02 05:22:11;;;;;;;;;;;11.80;99.90;;;;;;5054040;28;19908;-70
2022/07/02 05:24:36;;;;;;;;;;;12.00;99.90;;;;;;5053916;28;20288;-68
2022/07/02 05:27:02;;;;;;;;;;;12.20;99.90;;;;;;5053865;28;19996;-70
2022/07/02 05:29:28;;;;;;;;;;;12.40;99.90;;;;;;5053910;28;20343;-70
2022/07/02 05:31:53;;;;;;;;;;;12.40;99.90;;;;;;5054203;28;19916;-69
2022/07/02 05:34:18;;;;;;;;;;;12.50;99.90;;;;;;5053770;28;19917;-70
2022/07/02 05:36:44;;;;;;;;;;;12.60;99.90;;;;;;5054069;28;20349;-69
2022/07/02 05:39:09;;;;;;;;;;;12.60;99.90;;;;;;5053035;28;19908;-70
2022/07/02 05:41:35;;;;;;;;;;;12.80;99.90;;;;;;5053761;28;19949;-71
2022/07/02 05:44:00;;;;;;;;;;;12.90;99.90;;;;;;5053671;28;20371;-70
2022/07/02 05:46:26;;;;;;;;;;;13.10;99.90;;;;;;5054225;28;20003;-69
2022/07/02 05:48:51;;;;;;;;;;;13.20;99.90;;;;;;5053915;28;19935;-70
2022/07/02 05:51:17;;;;;;;;;;;13.00;99.90;;;;;;5053645;28;19909;-68
2022/07/02 05:53:42;;;;;;;;;;;13.00;99.90;;;;;;5053625;28;20385;-69
2022/07/02 05:56:08;;;;;;;;;;;13.00;99.90;;;;;;5053532;28;20398;-70
2022/07/02 05:58:34;;;;;;;;;;;;;;;;;;5053512;28;19916;-70
2022/07/02 06:01:00;;;;;;;;;;;;;;;;;;5053514;28;19909;-69
2022/07/02 06:03:25;;;;;;;;;;;;;;;;;;5054035;28;19955;-69
2022/07/02 06:08:36;;;;;;;;;;;;;;;;;;5053249;28;20015;-69
2022/07/02 06:11:02;;;;;;;;;;;;;;;;;;5053408;28;19945;-71
2022/07/02 06:13:28;;;;;;;;;;;;;;;;;;5053950;28;19913;-70
2022/07/02 06:15:54;;;;;;;;;;;;;;;;;;5053600;28;19912;-70
2022/07/02 06:18:20;;;;;;;;;;;;;;;;;;5053646;28;19925;-70
2022/07/02 06:20:46;;;;;;;;;;;;;;;;;;5053318;28;19953;-70
2022/07/02 06:23:12;;;;;;;;;;;;;;;;;;5053842;28;20284;-70
2022/07/02 06:25:37;;;;;;;;;;;;;;;;;;5053212;28;19913;-70
2022/07/02 06:28:03;;;;;;;;;;;;;;;;;;5052853;28;19948;-70
2022/07/02 06:30:29;;;;;;;;;;;;;;;;;;5053267;28;19974;-70
2022/07/02 06:32:55;;;;;;;;;;;;;;;;;;5053519;28;19916;-70
2022/07/02 06:35:21;;;;;;;;;;;;;;;;;;5053159;28;19917;-69
2022/07/02 06:37:47;;;;;;;;;;;;;;;;;;5053753;28;19908;-69
2022/07/02 06:40:14;;;;;;;;;;;;;;;;;;5053170;28;20276;-69
2022/07/02 06:42:40;;;;;;;;;;;;;;;;;;5035007;28;19915;-69
2022/07/02 06:45:06;;;;;;;;;;;;;;;;;;5053373;28;19908;-70
2022/07/02 06:47:32;;;;;;;;;;;;;;;;;;5053360;28;19909;-69
2022/07/02 06:49:58;;;;;;;;;;;;;;;;;;5053084;28;20000;-69
2022/07/02 06:52:24;;;;;;;;;;;;;;;;;;5057068;28;19909;-69
2022/07/02 06:54:50;;;;;;;;;;;;;;;;;;5056721;28;19913;-70
2022/07/02 06:57:16;;;;;;;;;;;;;;;;;;5056740;28;19967;-69
2022/07/02 06:59:42;;;;;;;;;;;;;;;;;;5056907;28;19913;-70
2022/07/02 07:02:08;;;;;;;;;;;;;;;;;;5056616;28;19909;-70
2022/07/02 07:04:34;;;;;;;;;;;;;;;;;;5056883;28;19916;-69
2022/07/02 07:07:03;;;;;;;;;;;;;;;;;;5056529;28;19909;-69
2022/07/02 07:09:29;;;;;;;;;;;;;;;;;;5056665;28;19915;-69
2022/07/02 07:11:54;;;;;;;;;;;;;;;;;;5056429;28;20004;-69
2022/07/02 07:14:20;;;;;;;;;;;;;;;;;;5056905;28;19913;-69
2022/07/02 07:16:46;;;;;;;;;;;;;;;;;;5056350;28;19920;-69
2022/07/02 07:19:12;;;;;;;;;;;;;;;;;;5056585;28;20090;-70
2022/07/02 07:21:38;;;;;;;;;;;;;;;;;;5056286;28;19908;-71
2022/07/02 07:24:04;;;;;;;;;;;;;;;;;;5056600;28;19909;-70
2022/07/02 07:26:30;;;;;;;;;;;;;;;;;;5055984;28;19917;-69
2022/07/02 07:28:56;;;;;;;;;;;;;;;;;;5056723;28;19963;-69
2022/07/02 07:31:22;;;;;;;;;;;;;;;;;;5056355;28;19915;-70
2022/07/02 07:33:47;;;;;;;;;;;;;;;;;;5056054;28;20326;-68
2022/07/02 07:36:13;;;;;;;;;;;;;;;;;;5056460;28;20350;-70
2022/07/02 07:38:39;;;;;;;;;;;;;;;;;;5055956;28;19908;-69
2022/07/02 07:41:05;;;;;;;;;;;;;;;;;;5056485;28;19941;-69
2022/07/02 07:43:31;;;;;;;;;;;;;;;;;;5055851;28;19916;-67
2022/07/02 07:45:57;;;;;;;;;;;;;;;;;;5055751;28;19995;-70
2022/07/02 07:48:23;;;;;;;;;;;;;;;;;;5056003;28;19909;-69
2022/07/02 07:50:49;;;;;;;;;;;;;;;;;;5055713;28;19909;-70
2022/07/02 07:53:15;;;;;;;;;;;;;;;;;;5055961;28;19909;-69
2022/07/02 07:55:41;;;;;;;;;;;;;;;;;;5055511;28;19920;-71
2022/07/02 07:58:07;;;;;;;;;;;;;;;;;;5056111;28;19916;-70
2022/07/02 08:00:32;;;;;;;;;;;;;;;;;;5055814;28;19908;-69
2022/07/02 08:02:58;;;;;;;;;;;;;;;;;;5055007;28;20452;-68
2022/07/02 08:05:24;;;;;;;;;;;;;;;;;;5055754;28;19940;-70
2022/07/02 08:07:50;;;;;;;;;;;;;;;;;;5055983;28;19979;-70
2022/07/02 08:10:16;;;;;;;;;;;;;;;;;;5055659;28;19920;-69
2022/07/02 08:12:42;;;;;;;;;;;;;;;;;;5055322;28;19952;-70
2022/07/02 08:15:08;;;;;;;;;;;;;;;;;;5055211;28;20385;-69
2022/07/02 08:17:34;;;;;;;;;;;;;;;;;;5055738;28;19909;-70
2022/07/02 08:20:02;;;;;;;;;;;;;;;;;;5055522;28;19915;-69
2022/07/02 08:22:28;;;;;;;;;;;;;;;;;;5055721;28;19908;-70
2022/07/02 08:24:54;;;;;;;;;;;;;;;;;;5054990;28;20261;-69
2022/07/02 08:27:19;;;;;;;;;;;;;;;;;;5054916;28;19923;-70
2022/07/02 08:29:45;;;;;;;;;;;;;;;;;;5054976;28;19916;-70
2022/07/02 08:32:11;;;;;;;;;;;;;;;;;;5055204;28;19912;-69
2022/07/02 08:34:37;;;;;;;;;;;;;;;;;;5054743;28;19917;-69
2022/07/02 08:37:03;;;;;;;;;;;;;;;;;;5055062;28;19909;-69
2022/07/02 08:39:29;;;;;;;;;;;;;;;;;;5054816;28;19909;-71
2022/07/02 08:41:55;;;;;;;;;;;;;;;;;;5055026;28;20284;-69
2022/07/02 08:44:24;;;;;;;;;;;;;;;;;;5036745;28;19954;-68
2022/07/02 08:46:50;;;;;;;;;;;;;;;;;;5055249;28;19916;-68
2022/07/02 08:49:16;;;;;;;;;;;;;;;;;;5054891;28;19913;-69
2022/07/02 08:51:42;;;;;;;;;;;;;;;;;;5054545;28;19908;-69
2022/07/02 08:54:08;;;;;;;;;;;;;;;;;;5054380;28;20387;-68
2022/07/02 08:56:34;;;;;;;;;;;;;;;;;;5054244;28;19909;-69
2022/07/02 08:59:00;;;;;;;;;;;;;;;;;;5054670;28;19909;-67
2022/07/02 09:01:26;;;;;;;;;;;;;;;;;;5054448;28;19920;-69
2022/07/02 09:03:52;;;;;;;;;;;;;;;;;;5054329;28;19909;-68
2022/07/02 09:06:19;;;;;;;;;;;;;;;;;;5054434;28;19916;-69
2022/07/02 09:08:45;;;;;;;;;;;;;;;;;;5054384;28;19915;-70
2022/07/02 09:11:11;;;;;;;;;;;;;;;;;;5054207;28;19909;-70
2022/07/02 09:13:37;;;;;;;;;;;;;;;;;;5054058;28;20012;-71
2022/07/02 09:16:03;;;;;;;;;;;;;;;;;;5055508;28;19912;-68
2022/07/02 09:18:29;;;;;;;;;;;;;;;;;;5056744;28;19909;-73
2022/07/02 09:20:55;;;;;;;;;;;;;;;;;;5055250;28;19916;-73
2022/07/02 09:23:20;;;;;;;;;;;;;;;;;;5053956;28;19950;-69
2022/07/02 09:25:47;;;;;;;;;;;;;;;;;;5055112;28;20262;-68
2022/07/02 09:28:13;;;;;;;;;;;;;;;;;;5018360;28;20297;-69
2022/07/02 09:30:39;;;;;;;;;;;;;;;;;;5036467;28;19909;-68
2022/07/02 09:35:49;;;;;;;;;;;;;;;;;;5034329;28;20388;-68
2022/07/02 09:38:15;;;;;;;;;;;;;;;;;;5034023;28;19909;-68
2022/07/02 09:40:41;;;;;;;;;;;;;;;;;;5034022;28;19955;-69
2022/07/02 09:43:07;;;;;;;;;;;;;;;;;;5033781;28;19913;-68
2022/07/02 09:45:33;;;;;;;;;;;;;;;;;;5034159;28;20320;-68
2022/07/02 09:48:03;;;;;;;;;;;;;;;;;;5034677;28;19959;-68
2022/07/02 09:50:29;;;;;;;;;;;;;;;;;;5033873;28;19913;-68
2022/07/02 09:52:55;;;;;;;;;;;;;;;;;;5034122;28;19944;-68
2022/07/02 09:55:21;;;;;;;;;;;;;;;;;;5033718;28;19965;-68
2022/07/02 09:57:47;;;;;;;;;;;;;;;;;;5033471;28;19913;-69
2022/07/02 10:00:13;;;;;;;;;;;;;;;;;;5033464;28;19909;-71
2022/07/02 10:02:38;;;;;;;;;;;;;;;;;;5033529;28;19971;-70
2022/07/02 10:05:04;;;;;;;;;;;;;;;;;;5015709;28;19917;-68
2022/07/02 10:07:30;;;;;;;;;;;;;;;;;;5033528;28;19909;-68
2022/07/02 10:09:56;;;;;;;;;;;;;;;;;;5034066;28;19958;-68
2022/07/02 10:12:22;;;;;;;;;;;;;;;;;;5033321;28;19909;-69
2022/07/02 10:14:48;;;;;;;;;;;;;;;;;;5033743;28;19955;-68
2022/07/02 10:17:14;;;;;;;;;;;;;;;;;;5033474;28;19960;-68
2022/07/02 10:19:40;;;;;;;;;;;;;;;;;;5034032;28;19949;-68
2022/07/02 10:22:06;;;;;;;;;;;;;;;;;;5033430;28;19916;-69
2022/07/02 10:24:32;;;;;;;;;;;;;;;;;;5033591;28;19951;-68
2022/07/02 10:26:58;;;;;;;;;;;;;;;;;;5036569;28;19917;-68
2022/07/02 10:29:23;;;;;;;;;;;;;;;;;;5037354;28;20361;-68
2022/07/02 10:31:49;;;;;;;;;;;;;;;;;;5037311;28;19996;-68
2022/07/02 10:34:15;;;;;;;;;;;;;;;;;;5037431;28;19909;-68
2022/07/02 10:36:41;;;;;;;;;;;;;;;;;;5037427;28;20039;-68
2022/07/02 10:39:07;;;;;;;;;;;;;;;;;;5037169;28;19913;-68
2022/07/02 10:41:33;;;;;;;;;;;;;;;;;;5037171;28;20373;-68
2022/07/02 10:43:59;;;;;;;;;;;;;;;;;;5037376;28;19944;-68
2022/07/02 10:46:25;;;;;;;;;;;;;;;;;;5037009;28;19909;-69
2022/07/02 10:48:51;;;;;;;;;;;;;;;;;;5037010;28;19991;-68
2022/07/02 10:51:17;;;;;;;;;;;;;;;;;;5036973;28;19955;-69
2022/07/02 10:53:43;;;;;;;;;;;;;;;;;;5037165;28;20357;-68
2022/07/02 10:56:09;;;;;;;;;;;;;;;;;;5036755;28;19913;-68
2022/07/02 10:58:35;;;;;;;;;;;;;;;;;;5036796;28;19916;-68
2022/07/02 11:01:01;;;;;;;;;;;;;;;;;;5036815;28;19999;-68
2022/07/02 11:03:27;;;;;;;;;;;;;;;;;;5037266;28;20384;-68
2022/07/02 11:05:53;;;;;;;;;;;;;;;;;;5036696;28;19952;-68
2022/07/02 11:08:19;;;;;;;;;;;;;;;;;;5036641;28;19910;-68
2022/07/02 11:10:44;;;;;;;;;;;;;;;;;;5037121;28;20288;-68
2022/07/02 11:13:10;;;;;;;;;;;;;;;;;;5036831;28;19917;-68
2022/07/02 11:15:36;;;;;;;;;;;;;;;;;;5036430;28;20081;-69
2022/07/02 11:18:02;;;;;;;;;;;;;;;;;;5037038;28;19961;-69
2022/07/02 11:20:28;;;;;;;;;;;;;;;;;;5036421;28;20399;-69
2022/07/02 11:22:57;;;;;;;;;;;;;;;;;;5036672;28;19910;-69
2022/07/02 11:25:23;;;;;;;;;;;;;;;;;;5036305;28;19909;-68
2022/07/02 11:27:49;;;;;;;;;;;;;;;;;;5036075;28;19917;-68
2022/07/02 11:30:15;;;;;;;;;;;;;;;;;;5036210;28;19932;-68
2022/07/02 11:32:40;;;;;;;;;;;;;;;;;;5036206;28;19909;-68
2022/07/02 11:35:06;;;;;;;;;;;;;;;;;;5036069;28;19928;-68
2022/07/02 11:37:32;;;;;;;;;;;;;;;;;;5035175;28;20332;-68
2022/07/02 11:39:58;;;;;;;;;;;;;;;;;;5036033;28;19909;-68
2022/07/02 11:42:24;;;;;;;;;;;;;;;;;;5036008;28;20289;-68
2022/07/02 11:44:50;;;;;;;;;;;;;;;;;;5035947;28;19994;-68
2022/07/02 11:47:16;;;;;;;;;;;;;;;;;;5035958;28;19982;-68
2022/07/02 11:49:42;;;;;;;;;;;;;;;;;;5035862;28;19910;-69
2022/07/02 11:52:08;;;;;;;;;;;;;;;;;;5036077;28;19909;-69
2022/07/02 11:54:33;;;;;;;;;;;;;;;;;;5035979;28;19913;-68
2022/07/02 11:56:59;;;;;;;;;;;;;;;;;;5035726;28;19909;-68
2022/07/02 11:59:25;;;;;;;;;;;;;;;;;;5035664;28;19955;-68
2022/07/02 12:01:51;;;;;;;;;;;;;;;;;;5035685;28;19952;-68
2022/07/02 12:04:17;;;;;;;;;;;;;;;;;;5035869;28;19913;-68
2022/07/02 12:06:43;;;;;;;;;;;;;;;;;;5035530;28;19916;-68
2022/07/02 12:09:09;;;;;;;;;;;;;;;;;;5035481;28;19995;-68
2022/07/02 12:11:35;;;;;;;;;;;;;;;;;;5035425;28;19913;-68
2022/07/02 12:14:01;;;;;;;;;;;;;;;;;;5017618;28;19916;-68
2022/07/02 12:16:27;;;;;;;;;;;;;;;;;;5035330;28;19917;-68
2022/07/02 12:18:53;;;;;;;;;;;;;;;;;;5035887;28;20286;-67
2022/07/02 12:21:19;;;;;;;;;;;;;;;;;;5035277;28;20296;-68
2022/07/02 12:23:44;;;;;;;;;;;;;;;;;;5035461;28;19916;-69
2022/07/02 12:26:11;;;;;;;;;;;;;;;;;;5038193;28;20431;-68
2022/07/02 12:31:21;;;;;;;;;;;;;;;;;;5055090;28;20418;-68
2022/07/02 12:33:47;;;;;;;;;;;;;;;;;;5054926;28;19913;-69
2022/07/02 12:36:13;;;;;;;;;;;;;;;;;;5055426;28;20364;-68
2022/07/02 12:38:39;;;;;;;;;;;;;;;;;;5055183;28;19916;-68
2022/07/02 12:41:05;;;;;;;;;;;;;;;;;;5054851;28;20348;-68
2022/07/02 12:43:31;;;;;;;;;;;;;;;;;;5054798;28;19909;-67
2022/07/02 12:45:56;;;;;;;;;;;;;;;;;;5054989;28;19913;-69
2022/07/02 12:48:22;;;;;;;;;;;;;;;;;;5054361;28;19909;-68
2022/07/02 12:50:49;;;;;;;;;;;;;;;;;;5054883;28;19970;-68
2022/07/02 12:53:14;;;;;;;;;;;;;;;;;;5054593;28;19963;-69
2022/07/02 12:55:40;;;;;;;;;;;;;;;;;;5054420;28;19956;-67
2022/07/02 12:58:06;;;;;;;;;;;;;;;;;;5054761;28;20058;-68
2022/07/02 13:00:32;;;;;;;;;;;;;;;;;;5054459;28;19909;-69
2022/07/02 13:02:58;;;;;;;;;;;;;;;;;;5054662;28;19909;-68
2022/07/02 13:05:24;;;;;;;;;;;;;;;;;;5054629;28;19916;-68
2022/07/02 13:07:50;;;;;;;;;;;;;;;;;;5054315;28;19909;-68
2022/07/02 13:10:16;;;;;;;;;;;;;;;;;;5054528;28;19913;-69
2022/07/02 13:12:42;;;;;;;;;;;;;;;;;;5054186;28;19909;-68
2022/07/02 13:15:08;;;;;;;;;;;;;;;;;;5054390;28;20119;-69
2022/07/02 13:17:34;;;;;;;;;;;;;;;;;;5054151;28;20000;-68
2022/07/02 13:20:00;;;;;;;;;;;;;;;;;;5054122;28;20392;-68
2022/07/02 13:22:26;;;;;;;;;;;;;;;;;;5054074;28;20003;-69
2022/07/02 13:24:52;;;;;;;;;;;;;;;;;;5053963;28;19955;-68
2022/07/02 13:27:18;;;;;;;;;;;;;;;;;;5053805;28;19917;-68
2022/07/02 13:29:44;;;;;;;;;;;;;;;;;;5054203;28;19909;-68
2022/07/02 13:32:09;;;;;;;;;;;;;;;;;;5053890;28;19938;-68
2022/07/02 13:34:35;;;;;;;;;;;;;;;;;;5053790;28;19917;-68
2022/07/02 13:37:02;;;;;;;;;;;;;;;;;;5054382;28;19962;-68
2022/07/02 13:39:30;;;;;;;;;;;;;;;;;;5054099;28;19909;-68
2022/07/02 13:41:56;;;;;;;;;;;;;;;;;;5054370;28;20353;-68
2022/07/02 13:44:22;;;;;;;;;;;;;;;;;;5053720;28;19916;-68
2022/07/02 13:46:48;;;;;;;;;;;;;;;;;;5054016;28;19983;-68
2022/07/02 13:49:14;;;;;;;;;;;;;;;;;;5053718;28;19909;-68
2022/07/02 13:51:40;;;;;;;;;;;;;;;;;;5053648;28;19988;-69
2022/07/02 13:54:06;;;;;;;;;;;;;;;;;;5053918;28;19909;-69
2022/07/02 13:56:32;;;;;;;;;;;;;;;;;;5053547;28;20349;-68
2022/07/02 13:58:58;;;;;;;;;;;;;;;;;;5053599;28;19916;-68
2022/07/02 14:01:23;;;;;;;;;;;;;;;;;;5052951;28;19916;-68
2022/07/02 14:03:49;;;;;;;;;;;;;;;;;;5054161;28;20292;-68
2022/07/02 14:06:15;;;;;;;;;;;;;;;;;;5053811;28;19909;-68
2022/07/02 14:08:41;;;;;;;;;;;;;;;;;;5053528;28;19959;-69
2022/07/02 14:11:09;;;;;;;;;;;;;;;;;;5053786;28;19963;-69
2022/07/02 14:13:35;;;;;;;;;;;;;;;;;;5053433;28;19909;-68
2022/07/02 14:16:01;;;;;;;;;;;;;;;;;;5053661;28;19958;-67
2022/07/02 14:18:27;;;;;;;;;;;;;;;;;;5035529;28;19928;-68
2022/07/02 14:20:53;;;;;;;;;;;;;;;;;;5053949;28;19954;-68
2022/07/02 14:23:19;;;;;;;;;;;;;;;;;;5053655;28;19999;-68
2022/07/02 14:25:45;;;;;;;;;;;;;;;;;;5053430;28;20361;-68
2022/07/02 14:28:11;;;;;;;;;;;;;;;;;;5053153;28;19917;-68
2022/07/02 14:30:36;;;;;;;;;;;;;;;;;;5053317;28;20467;-68
2022/07/02 14:33:02;;;;;;;;;;;;;;;;;;5053537;28;19955;-68
2022/07/02 14:35:28;;;;;;;;;;;;;;;;;;5053441;28;19962;-68
2022/07/02 14:37:55;;;;;;;;;;;;;;;;;;5053515;28;19908;-68
2022/07/02 14:40:20;;;;;;;;;;;;;;;;;;5053204;28;19909;-68
2022/07/02 14:42:46;;;;;;;;;;;;;;;;;;5053155;28;20419;-68
2022/07/02 14:45:12;;;;;;;;;;;;;;;;;;5053129;28;19909;-67
2022/07/02 14:47:38;;;;;;;;;;;;;;;;;;5053146;28;20365;-68
2022/07/02 14:50:05;;;;;;;;;;;;;;;;;;5053118;28;19909;-67
2022/07/02 14:52:31;;;;;;;;;;;;;;;;;;5053714;28;19909;-68
2022/07/02 14:54:57;;;;;;;;;;;;;;;;;;5053022;28;20015;-68
2022/07/02 14:57:23;;;;;;;;;;;;;;;;;;5053587;28;20264;-68
2022/07/02 14:59:49;;;;;;;;;;;;;;;;;;5053298;28;19909;-69
2022/07/02 15:02:15;;;;;;;;;;;;;;;;;;5052981;28;20262;-69
2022/07/02 15:04:41;;;;;;;;;;;;;;;;;;5052965;28;20003;-68
2022/07/02 15:07:06;;;;;;;;;;;;;;;;;;5053256;28;19920;-68
2022/07/02 15:09:32;;;;;;;;;;;;;;;;;;5052929;28;19909;-69
2022/07/02 15:11:58;;;;;;;;;;;;;;;;;;5054722;28;19909;-68
2022/07/02 15:17:09;;;;;;;;;;;;;;;;;;5056215;28;19916;-68
2022/07/02 15:19:35;;;;;;;;;;;;;;;;;;5056932;28;20277;-68
2022/07/02 15:22:01;;;;;;;;;;;;;;;;;;5056363;28;19908;-69
2022/07/02 15:24:26;;;;;;;;;;;;;;;;;;5056207;28;19984;-68
2022/07/02 15:26:53;;;;;;;;;;;;;;;;;;5056114;28;19920;-68
2022/07/02 15:29:19;;;;;;;;;;;;;;;;;;5056516;28;19909;-69
2022/07/02 15:31:44;;;;;;;;;;;;;;;;;;5056435;28;20372;-68
2022/07/02 15:34:10;;;;;;;;;;;;;;;;;;5056669;28;19909;-69
2022/07/02 15:36:36;;;;;;;;;;;;;;;;;;5056006;28;20011;-69
2022/07/02 15:39:02;;;;;;;;;;;;;;;;;;5056003;28;19909;-68
2022/07/02 15:41:28;;;;;;;;;;;;;;;;;;5056008;28;19909;-69
2022/07/02 15:43:54;;;;;;;;;;;;;;;;;;5056234;28;19916;-68
2022/07/02 15:46:20;;;;;;;;;;;;;;;;;;5055901;28;20280;-68
2022/07/02 15:48:46;;;;;;;;;;;;;;;;;;5055891;28;19909;-68
2022/07/02 15:51:12;;;;;;;;;;;;;;;;;;5056372;28;20329;-69
2022/07/02 15:53:37;;;;;;;;;;;;;;;;;;5056054;28;19917;-68